Timaru, New Zealand
Current Conditions -  °F | °C
As of 10:00 PM on Thursday 23 Oct 2014 (Local Time) from NZCH Reporting Station
Clear Clear  
Wind Chill: 59°   Ceiling: Unl
Heat Index: 59°   Visibility: 6mi
Dew Point: 37°   Wind: 14mph
Humidity: 45%   Direction: 240°WSW
Pressure: 29.65"   Gusts: NA
Location:  44.4°S, 171.25°E
Report Text: NZCH 231000Z AUTO 24012KT 190V290 9999 NCD 15/03 Q1004 BECMG23018G25KT
Loading
Personal Weather Stations






























Interactive Weather Map
Tropical Storm Tracking
New forecast layout! Learn more

10-Day Weather Forecast

Advertisements
Track Severe Weather on mobile